createdAt,value
2018-11-07T00:01:46.659Z,98339.34
2018-11-07T00:04:14.561Z,98336.78
2018-11-07T00:06:43.491Z,98339.84
2018-11-07T00:09:10.807Z,98346.25
2018-11-07T00:11:38.143Z,98343.87
2018-11-07T00:14:05.880Z,98346.26
2018-11-07T00:16:33.649Z,98347.56
2018-11-07T00:19:01.674Z,98352.55
2018-11-07T00:21:29.306Z,98358.93
2018-11-07T00:23:58.050Z,98356.80
2018-11-07T00:26:25.429Z,98355.71
2018-11-07T00:28:52.598Z,98353.87
2018-11-07T00:31:19.825Z,98351.24
2018-11-07T00:33:47.026Z,98349.94
2018-11-07T00:36:14.288Z,98348.39
2018-11-07T00:38:41.520Z,98346.06
2018-11-07T00:41:08.678Z,98349.59
2018-11-07T00:43:35.915Z,98346.67
2018-11-07T00:46:03.179Z,98348.27
2018-11-07T00:48:30.514Z,98353.48
2018-11-07T00:50:57.766Z,98360.13
2018-11-07T00:53:25.040Z,98326.75
2018-11-07T00:55:52.241Z,98361.20
2018-11-07T00:58:19.383Z,98364.64
2018-11-07T01:00:46.604Z,98364.92
2018-11-07T01:03:13.894Z,98369.91
2018-11-07T01:05:41.107Z,98373.40
2018-11-07T01:08:08.601Z,98374.42
2018-11-07T01:10:35.817Z,98378.91
2018-11-07T01:13:03.014Z,98376.84
2018-11-07T01:15:30.185Z,98371.86
2018-11-07T01:17:57.341Z,98373.18
2018-11-07T01:20:24.562Z,98365.55
2018-11-07T01:22:51.812Z,98362.63
2018-11-07T01:25:19.009Z,98362.63
2018-11-07T01:27:46.363Z,98362.11
2018-11-07T01:30:14.061Z,98357.66
2018-11-07T01:32:41.441Z,98355.11
2018-11-07T01:35:08.893Z,98359.07
2018-11-07T01:37:36.338Z,98347.97
2018-11-07T01:40:05.476Z,97885.20
2018-11-07T01:42:33.457Z,98348.25
2018-11-07T01:45:00.670Z,98346.41
2018-11-07T01:47:27.974Z,98351.92
2018-11-07T01:49:55.158Z,98341.38
2018-11-07T01:52:22.417Z,98344.30
2018-11-07T01:54:49.696Z,98335.09
2018-11-07T01:57:16.922Z,98339.59
2018-11-07T01:59:44.064Z,98335.64
2018-11-07T02:02:11.378Z,98335.88
2018-11-07T02:04:38.590Z,98336.71
2018-11-07T02:07:06.020Z,98337.48
2018-11-07T02:09:33.437Z,98333.28
2018-11-07T02:12:00.642Z,98343.55
2018-11-07T02:14:27.815Z,98346.70
2018-11-07T02:16:54.978Z,98348.29
2018-11-07T02:19:22.268Z,98345.66
2018-11-07T02:21:49.575Z,98336.98
2018-11-07T02:24:16.754Z,98334.88
2018-11-07T02:26:43.900Z,98334.08
2018-11-07T02:29:14.810Z,98327.73
2018-11-07T02:31:43.991Z,98331.17
2018-11-07T02:34:11.801Z,98324.88
2018-11-07T02:36:38.961Z,98330.67
2018-11-07T02:39:08.631Z,98332.48
2018-11-07T02:41:35.955Z,98335.67
2018-11-07T02:49:03.796Z,98337.53
2018-11-07T02:51:30.999Z,98333.33
2018-11-07T02:53:58.887Z,98334.12
2018-11-07T02:56:26.288Z,98331.73
2018-11-07T02:58:53.957Z,98328.05
2018-11-07T03:01:21.305Z,98331.20
2018-11-07T03:03:49.179Z,98332.01
2018-11-07T03:06:16.373Z,98332.26
2018-11-07T03:08:43.616Z,98328.31
2018-11-07T03:11:10.998Z,98330.17
2018-11-07T03:13:38.204Z,98325.16
2018-11-07T03:16:05.672Z,98330.94
2018-11-07T03:18:32.965Z,98330.17
2018-11-07T03:21:00.206Z,98328.06
2018-11-07T03:23:27.470Z,98324.91
2018-11-07T03:25:55.070Z,98321.73
2018-11-07T03:28:22.236Z,98315.67
2018-11-07T03:30:49.428Z,98313.58
2018-11-07T03:33:16.730Z,98307.53
2018-11-07T03:35:44.050Z,98314.63
2018-11-07T03:38:11.359Z,98311.22
2018-11-07T03:40:38.558Z,98308.86
2018-11-07T03:43:05.754Z,98303.84
2018-11-07T03:45:38.615Z,98303.59
2018-11-07T03:48:05.891Z,98321.22
2018-11-07T03:50:33.082Z,98320.17
2018-11-07T03:53:00.595Z,98321.47
2018-11-07T03:55:27.782Z,98312.79
2018-11-07T03:57:54.971Z,98308.83
2018-11-07T04:00:22.291Z,98304.39
2018-11-07T04:02:49.557Z,98312.27
2018-11-07T04:05:16.756Z,98278.07
2018-11-07T04:07:43.981Z,98315.42
2018-11-07T04:10:11.225Z,98324.38
2018-11-07T04:12:38.609Z,98314.11
2018-11-07T04:15:06.252Z,98314.63
2018-11-07T04:17:33.618Z,98315.70
2018-11-07T04:20:00.877Z,98312.52
2018-11-07T04:22:28.381Z,98318.06
2018-11-07T04:24:55.589Z,98314.38
2018-11-07T04:27:22.882Z,98311.23
2018-11-07T04:29:50.226Z,98304.90
2018-11-07T04:32:17.495Z,98305.95
2018-11-07T04:34:44.787Z,98314.89
2018-11-07T04:37:12.104Z,98321.99
2018-11-07T04:39:39.361Z,98320.16
2018-11-07T04:42:06.550Z,98316.73
2018-11-07T04:44:33.927Z,98307.27
2018-11-07T04:47:01.445Z,98319.39
2018-11-07T04:49:28.590Z,98314.90
2018-11-07T04:51:55.767Z,98313.84
2018-11-07T04:54:22.949Z,98318.33
2018-11-07T04:56:50.150Z,98324.91
2018-11-07T04:59:17.366Z,98328.86
2018-11-07T05:01:44.528Z,98330.44
2018-11-07T05:04:11.669Z,98326.47
2018-11-07T05:06:38.877Z,98330.68
2018-11-07T05:09:07.226Z,98335.43
2018-11-07T05:11:34.793Z,98329.64
2018-11-07T05:14:02.216Z,98331.48
2018-11-07T05:16:29.822Z,98331.23
2018-11-07T05:18:57.110Z,98332.28
2018-11-07T05:21:24.257Z,98343.07
2018-11-07T05:23:51.419Z,98338.84
2018-11-07T05:26:18.624Z,98337.52
2018-11-07T05:28:45.707Z,98330.41
2018-11-07T05:31:12.883Z,98336.48
2018-11-07T05:33:40.006Z,98332.53
2018-11-07T05:36:07.482Z,98335.17
2018-11-07T05:38:34.801Z,98333.06
2018-11-07T05:41:02.059Z,98339.37
2018-11-07T05:43:29.137Z,98339.13
2018-11-07T05:45:56.335Z,98337.28
2018-11-07T05:48:23.551Z,98345.16
2018-11-07T05:50:50.793Z,98341.50
2018-11-07T05:53:18.075Z,98343.84
2018-11-07T05:55:45.427Z,98348.86
2018-11-07T05:58:12.649Z,98340.42
2018-11-07T06:00:40.075Z,98186.35
2018-11-07T06:03:07.432Z,98345.67
2018-11-07T06:05:34.775Z,98351.47
2018-11-07T06:08:01.961Z,98354.63
2018-11-07T06:10:29.185Z,98349.63
2018-11-07T06:12:56.381Z,98352.25
2018-11-07T06:15:24.889Z,98356.22
2018-11-07T06:17:52.274Z,98353.58
2018-11-07T06:20:19.446Z,98357.27
2018-11-07T06:22:46.766Z,98363.06
2018-11-07T06:25:13.957Z,98367.80
2018-11-07T06:27:41.269Z,98365.97
2018-11-07T06:30:10.439Z,98365.70
2018-11-07T06:32:37.904Z,98362.55
2018-11-07T06:35:06.530Z,98373.86
2018-11-07T06:37:33.907Z,98371.98
2018-11-07T06:40:01.155Z,98383.28
2018-11-07T06:42:28.389Z,98382.25
2018-11-07T06:44:56.658Z,98382.80
2018-11-07T06:47:24.486Z,98383.58
2018-11-07T06:49:51.815Z,98384.36
2018-11-07T06:52:19.015Z,98386.97
2018-11-07T06:54:46.352Z,98385.14
2018-11-07T06:57:13.640Z,98386.72
2018-11-07T06:59:40.812Z,98392.25
2018-11-07T07:02:08.025Z,98393.31
2018-11-07T07:04:35.155Z,98391.42
2018-11-07T07:07:02.648Z,98393.81
2018-11-07T07:09:29.866Z,98401.95
2018-11-07T07:11:57.139Z,98399.83
2018-11-07T07:14:24.489Z,98402.76
2018-11-07T07:16:51.831Z,98405.14
2018-11-07T07:19:19.135Z,98408.05
2018-11-07T07:21:46.693Z,98407.77
2018-11-07T07:24:14.047Z,98408.02
2018-11-07T07:26:41.334Z,98408.55
2018-11-07T07:29:08.664Z,98408.03
2018-11-07T07:31:36.178Z,98403.05
2018-11-07T07:34:03.370Z,98402.48
2018-11-07T07:36:30.727Z,98409.06
2018-11-07T07:38:57.953Z,98412.23
2018-11-07T07:41:25.239Z,98408.31
2018-11-07T07:43:52.638Z,98406.22
2018-11-07T07:46:19.871Z,98400.41
2018-11-07T07:48:47.551Z,98408.84
2018-11-07T07:51:14.751Z,98406.50
2018-11-07T07:53:42.007Z,98402.83
2018-11-07T07:56:09.317Z,98402.05
2018-11-07T07:58:36.538Z,98397.04
2018-11-07T08:01:04.911Z,98413.63
2018-11-07T08:03:32.350Z,98403.11
2018-11-07T08:05:59.598Z,98398.35
2018-11-07T08:08:26.741Z,98397.84
2018-11-07T08:10:53.990Z,98396.78
2018-11-07T08:13:21.256Z,98401.78
2018-11-07T08:15:48.459Z,98402.83
2018-11-07T08:18:15.807Z,98394.38
2018-11-07T08:20:43.012Z,98408.08
2018-11-07T08:23:10.265Z,98404.40
2018-11-07T08:25:37.485Z,98407.52
2018-11-07T08:28:05.067Z,98399.33
2018-11-07T08:30:32.291Z,98407.75
2018-11-07T08:32:59.469Z,98398.25
2018-11-07T08:35:26.947Z,98396.36
2018-11-07T08:37:54.239Z,98396.06
2018-11-07T08:40:22.771Z,98394.69
2018-11-07T08:42:50.329Z,98393.57
2018-11-07T08:45:18.440Z,98394.58
2018-11-07T08:47:46.569Z,98396.11
2018-11-07T08:50:15.583Z,98392.09
2018-11-07T08:52:43.860Z,98388.89
2018-11-07T08:55:12.784Z,98388.00
2018-11-07T08:57:39.990Z,98387.66
2018-11-07T09:00:10.052Z,98391.75
2018-11-07T09:02:37.406Z,98391.42
2018-11-07T09:05:04.654Z,98400.84
2018-11-07T09:07:32.302Z,98396.48
2018-11-07T09:09:59.525Z,98393.77
2018-11-07T09:12:26.907Z,98399.44
2018-11-07T09:14:54.631Z,98392.78
2018-11-07T09:17:21.889Z,98398.20
2018-11-07T09:19:49.303Z,98393.58
2018-11-07T09:22:16.500Z,98387.13
2018-11-07T09:24:43.736Z,98387.20
2018-11-07T09:27:10.961Z,98383.13
2018-11-07T09:29:38.206Z,98386.72
2018-11-07T09:32:05.823Z,98386.04
2018-11-07T09:34:33.131Z,98388.56
2018-11-07T09:37:01.039Z,98387.88
2018-11-07T09:39:28.246Z,98384.00
2018-11-07T09:41:55.453Z,98382.52
2018-11-07T09:44:22.796Z,98383.70
2018-11-07T09:46:50.052Z,98383.53
2018-11-07T09:49:17.244Z,98385.73
2018-11-07T09:51:44.372Z,98393.28
2018-11-07T09:54:12.012Z,98390.17
2018-11-07T09:56:39.203Z,98378.58
2018-11-07T09:59:06.539Z,98383.45
2018-11-07T10:01:33.782Z,98379.58
2018-11-07T10:04:00.957Z,98382.11
2018-11-07T10:06:28.180Z,98384.20
2018-11-07T10:08:55.492Z,98385.22
2018-11-07T10:11:22.812Z,98375.70
2018-11-07T10:13:50.271Z,98380.61
2018-11-07T10:16:17.526Z,98379.73
2018-11-07T10:18:44.797Z,98379.06
2018-11-07T10:21:12.001Z,98375.11
2018-11-07T10:23:39.392Z,98379.48
2018-11-07T10:26:06.874Z,98370.73
2018-11-07T10:28:34.726Z,98375.95
2018-11-07T10:31:01.814Z,98368.61
2018-11-07T10:33:28.955Z,98368.61
2018-11-07T10:35:56.130Z,98359.89
2018-11-07T10:38:23.336Z,98356.02
2018-11-07T10:40:50.789Z,98357.53
2018-11-07T10:43:18.210Z,98355.08
2018-11-07T10:45:45.432Z,98355.84
2018-11-07T10:48:12.794Z,98350.97
2018-11-07T10:50:39.987Z,98349.38
2018-11-07T10:53:07.548Z,98356.12
2018-11-07T10:55:34.981Z,98359.75
2018-11-07T10:58:02.192Z,98356.30
2018-11-07T11:00:35.369Z,98357.88
2018-11-07T11:03:09.200Z,98350.03
2018-11-07T11:05:37.539Z,98353.48
2018-11-07T11:08:05.698Z,98350.62
2018-11-07T11:10:33.015Z,98362.44
2018-11-07T11:13:00.200Z,98353.52
2018-11-07T11:15:27.444Z,98357.98
2018-11-07T11:17:54.920Z,98354.09
2018-11-07T11:20:22.250Z,98354.31
2018-11-07T11:22:49.778Z,98305.54
2018-11-07T11:25:17.144Z,98361.38
2018-11-07T11:27:44.395Z,98359.71
2018-11-07T11:30:11.609Z,98355.81
2018-11-07T11:32:40.674Z,98355.17
2018-11-07T11:35:10.402Z,98351.88
2018-11-07T11:37:37.681Z,98347.41
2018-11-07T11:40:06.831Z,98352.84
2018-11-07T11:42:34.038Z,98355.27
2018-11-07T11:45:01.184Z,98355.64
2018-11-07T11:47:28.895Z,98359.18
2018-11-07T11:49:56.149Z,98354.03
2018-11-07T11:52:25.707Z,98352.49
2018-11-07T11:54:52.921Z,98352.76
2018-11-07T11:57:20.465Z,98353.20
2018-11-07T11:59:47.974Z,98348.09
2018-11-07T12:02:15.226Z,98344.12
2018-11-07T12:04:42.455Z,98348.13
2018-11-07T12:07:09.707Z,98341.38
2018-11-07T12:09:37.029Z,98345.67
2018-11-07T12:12:04.548Z,98337.77
2018-11-07T12:14:31.672Z,98346.57
2018-11-07T12:16:59.107Z,98346.81
2018-11-07T12:19:26.449Z,98346.77
2018-11-07T12:21:54.431Z,98345.87
2018-11-07T12:24:21.776Z,98341.78
2018-11-07T12:26:49.110Z,98337.50
2018-11-07T12:29:16.387Z,98326.24
2018-11-07T12:31:43.637Z,98323.53
2018-11-07T12:34:10.875Z,98321.11
2018-11-07T12:36:38.189Z,98327.18
2018-11-07T12:39:07.095Z,98329.28
2018-11-07T12:41:34.505Z,98330.73
2018-11-07T12:44:01.744Z,98332.42
2018-11-07T12:46:29.119Z,98341.14
2018-11-07T12:48:56.407Z,98339.44
2018-11-07T12:51:23.656Z,98341.44
2018-11-07T12:53:50.932Z,98341.88
2018-11-07T12:56:18.226Z,98348.23
2018-11-07T12:58:45.468Z,98351.09
2018-11-07T13:01:12.784Z,98353.30
2018-11-07T13:03:40.347Z,98356.52
2018-11-07T13:06:07.727Z,98356.70
2018-11-07T13:08:35.150Z,98356.90
2018-11-07T13:11:02.340Z,98358.16
2018-11-07T13:13:29.731Z,98365.64
2018-11-07T13:15:57.214Z,98362.22
2018-11-07T13:18:24.518Z,98364.44
2018-11-07T13:20:52.055Z,98367.47
2018-11-07T13:23:19.376Z,98363.30
2018-11-07T13:25:46.681Z,98359.70
2018-11-07T13:28:14.013Z,98358.02
2018-11-07T13:30:41.351Z,98358.17
2018-11-07T13:33:09.312Z,98360.08
2018-11-07T13:35:36.669Z,98361.80
2018-11-07T13:38:05.271Z,98364.16
2018-11-07T13:40:33.417Z,98370.20
2018-11-07T13:43:00.887Z,98368.33
2018-11-07T13:45:28.255Z,98367.30
2018-11-07T13:47:55.518Z,98367.65
2018-11-07T13:50:22.693Z,98368.73
2018-11-07T13:52:50.129Z,98368.73
2018-11-07T13:55:17.407Z,98371.80
2018-11-07T13:57:45.595Z,98380.22
2018-11-07T14:00:16.560Z,98378.23
2018-11-07T14:02:44.361Z,98379.50
2018-11-07T14:05:12.072Z,98385.23
2018-11-07T14:07:39.302Z,98380.13
2018-11-07T14:10:09.722Z,98385.95
2018-11-07T14:12:37.005Z,98391.65
2018-11-07T14:15:06.542Z,98390.48
2018-11-07T14:17:34.243Z,98403.98
2018-11-07T14:20:01.737Z,98403.59
2018-11-07T14:22:29.180Z,98404.06
2018-11-07T14:24:56.591Z,98401.47
2018-11-07T14:27:24.159Z,98408.52
2018-11-07T14:29:51.533Z,98417.09
2018-11-07T14:32:18.739Z,98413.77
2018-11-07T14:34:46.019Z,98418.17
2018-11-07T14:37:13.627Z,98425.85
2018-11-07T14:39:40.922Z,98431.36
2018-11-07T14:42:08.972Z,98435.19
2018-11-07T14:44:36.301Z,98436.69
2018-11-07T14:47:03.858Z,98440.51
2018-11-07T14:49:31.388Z,98438.95
2018-11-07T14:51:58.929Z,98442.70
2018-11-07T14:54:26.760Z,98436.58
2018-11-07T14:56:54.212Z,98435.42
2018-11-07T14:59:21.437Z,98439.70
2018-11-07T15:01:48.828Z,98432.73
2018-11-07T15:04:17.171Z,98419.16
2018-11-07T15:06:44.667Z,98414.37
2018-11-07T15:09:12.331Z,98398.94
2018-11-07T15:11:40.238Z,98416.34
2018-11-07T15:14:07.898Z,98426.61
2018-11-07T15:16:35.355Z,98431.30
2018-11-07T15:19:02.759Z,98440.72
2018-11-07T15:21:30.047Z,98446.12
2018-11-07T15:23:57.421Z,98455.73
2018-11-07T15:26:24.667Z,98450.66
2018-11-07T15:28:52.071Z,98449.17
2018-11-07T15:31:19.521Z,98463.89
2018-11-07T15:33:46.898Z,98465.61
2018-11-07T15:36:14.527Z,98467.04
2018-11-07T15:38:41.758Z,98467.67
2018-11-07T15:41:09.105Z,98466.98
2018-11-07T15:43:36.504Z,98467.45
2018-11-07T15:46:03.615Z,98480.30
2018-11-07T15:48:30.851Z,98485.63
2018-11-07T15:51:03.770Z,98499.02
2018-11-07T15:53:30.925Z,98505.98
2018-11-07T15:55:58.229Z,98506.91
2018-11-07T15:58:25.499Z,98509.44
2018-11-07T16:00:55.571Z,98518.18
2018-11-07T16:03:30.356Z,98515.75
2018-11-07T16:05:59.469Z,98519.64
2018-11-07T16:08:27.263Z,98523.69
2018-11-07T16:10:54.771Z,98523.64
2018-11-07T16:13:22.285Z,98530.52
2018-11-07T16:15:49.773Z,98538.02
2018-11-07T16:18:17.138Z,98541.53
2018-11-07T16:20:44.799Z,98542.39
2018-11-07T16:23:13.017Z,98544.63
2018-11-07T16:25:40.345Z,98550.26
2018-11-07T16:28:07.743Z,98555.20
2018-11-07T16:30:35.174Z,98550.42
2018-11-07T16:33:02.561Z,98554.98
2018-11-07T16:35:30.312Z,98552.31
2018-11-07T16:37:57.976Z,98560.15
2018-11-07T16:40:25.304Z,98569.23
2018-11-07T16:42:53.141Z,98566.04
2018-11-07T16:45:20.490Z,98571.57
2018-11-07T16:47:48.512Z,98583.59
2018-11-07T16:50:17.218Z,98592.06
2018-11-07T16:52:44.751Z,98594.33
2018-11-07T16:55:12.373Z,98597.58
2018-11-07T16:57:41.532Z,98595.27
2018-11-07T17:00:13.798Z,98612.96
2018-11-07T17:02:43.381Z,98616.06
2018-11-07T17:05:11.671Z,98624.17
2018-11-07T17:07:39.320Z,98630.98
2018-11-07T17:10:10.404Z,98629.21
2018-11-07T17:12:38.449Z,98634.42
2018-11-07T17:15:07.267Z,98643.64
2018-11-07T17:17:36.659Z,98647.28
2018-11-07T17:20:05.388Z,98652.03
2018-11-07T17:22:35.387Z,98659.70
2018-11-07T17:25:07.860Z,98657.36
2018-11-07T17:27:37.856Z,98670.87
2018-11-07T17:30:07.016Z,98666.95
2018-11-07T17:32:36.868Z,98668.00
2018-11-07T17:35:05.346Z,98669.47
2018-11-07T17:37:33.050Z,98671.49
2018-11-07T17:40:00.534Z,98679.53
2018-11-07T17:42:28.824Z,98676.88
2018-11-07T17:44:56.174Z,98683.28
2018-11-07T17:47:23.709Z,98693.00
2018-11-07T17:49:51.121Z,98697.58
2018-11-07T17:52:18.401Z,98700.32
2018-11-07T17:54:45.708Z,98703.18
2018-11-07T17:57:13.084Z,98706.34
2018-11-07T17:59:40.464Z,98710.17
2018-11-07T18:02:07.921Z,98714.13
2018-11-07T18:04:35.297Z,98704.36
2018-11-07T18:07:02.547Z,98711.84
2018-11-07T18:09:29.891Z,98706.57
2018-11-07T18:11:57.196Z,98716.30
2018-11-07T18:14:25.047Z,98723.97
2018-11-07T18:16:52.226Z,98716.83
2018-11-07T18:19:19.481Z,98717.62
2018-11-07T18:21:46.790Z,98714.30
2018-11-07T18:24:14.165Z,98693.72
2018-11-07T18:26:41.645Z,98692.45
2018-11-07T18:29:09.066Z,98694.60
2018-11-07T18:31:36.275Z,98699.17
2018-11-07T18:34:03.717Z,98686.49
2018-11-07T18:36:31.003Z,98687.05
2018-11-07T18:38:59.203Z,98674.02
2018-11-07T18:41:26.604Z,98677.70
2018-11-07T18:43:53.791Z,98684.84
2018-11-07T18:46:21.009Z,98706.36
2018-11-07T18:48:48.395Z,98725.02
2018-11-07T18:51:15.885Z,98726.23
2018-11-07T18:53:43.312Z,98727.78
2018-11-07T18:56:10.570Z,98714.56
2018-11-07T18:58:38.344Z,98714.46
2018-11-07T19:01:05.918Z,98714.80
2018-11-07T19:03:33.214Z,98720.53
2018-11-07T19:06:00.592Z,98725.58
2018-11-07T19:08:28.110Z,98723.80
2018-11-07T19:10:55.379Z,98715.92
2018-11-07T19:13:23.765Z,98726.10
2018-11-07T19:15:56.187Z,98725.63
2018-11-07T19:18:23.786Z,98732.44
2018-11-07T19:20:50.992Z,98736.73
2018-11-07T19:23:18.994Z,98737.53
2018-11-07T19:25:46.763Z,98739.27
2018-11-07T19:28:14.310Z,98745.72
2018-11-07T19:30:42.034Z,98747.89
2018-11-07T19:33:11.137Z,98755.05
2018-11-07T19:35:39.182Z,98751.08
2018-11-07T19:38:06.443Z,98759.09
2018-11-07T19:40:34.514Z,98759.34
2018-11-07T19:43:02.134Z,98753.80
2018-11-07T19:45:30.094Z,98752.69
2018-11-07T19:47:57.376Z,98757.16
2018-11-07T19:50:24.751Z,98759.28
2018-11-07T19:52:52.430Z,98762.97
2018-11-07T19:55:21.337Z,98771.41
2018-11-07T19:57:50.297Z,98770.70
2018-11-07T20:00:19.161Z,98774.66
2018-11-07T20:02:47.015Z,98775.72
2018-11-07T20:05:14.414Z,98776.49
2018-11-07T20:07:41.868Z,98782.11
2018-11-07T20:10:13.398Z,98786.02
2018-11-07T20:12:40.979Z,98787.84
2018-11-07T20:15:10.000Z,98794.75
2018-11-07T20:17:37.331Z,98796.94
2018-11-07T20:20:04.822Z,98802.26
2018-11-07T20:22:32.210Z,98803.89
2018-11-07T20:24:59.570Z,98806.86
2018-11-07T20:27:27.020Z,98811.85
2018-11-07T20:29:54.467Z,98808.47
2018-11-07T20:32:21.740Z,98812.17
2018-11-07T20:34:49.098Z,98807.38
2018-11-07T20:37:16.410Z,98810.28
2018-11-07T20:39:43.726Z,98815.02
2018-11-07T20:42:11.060Z,98808.14
2018-11-07T20:44:39.832Z,98816.17
2018-11-07T20:47:07.144Z,98814.03
2018-11-07T20:49:34.470Z,98814.54
2018-11-07T20:52:01.859Z,98814.83
2018-11-07T20:54:29.368Z,98813.22
2018-11-07T20:56:56.744Z,98814.03
2018-11-07T20:59:24.063Z,98816.46
2018-11-07T21:01:51.500Z,98816.75
2018-11-07T21:04:18.715Z,98816.99
2018-11-07T21:06:46.023Z,98813.81
2018-11-07T21:09:13.300Z,98821.45
2018-11-07T21:11:41.589Z,98814.95
2018-11-07T21:14:08.946Z,98822.11
2018-11-07T21:16:36.259Z,98823.09
2018-11-07T21:19:03.960Z,98818.84
2018-11-07T21:21:31.715Z,98819.67
2018-11-07T21:23:58.937Z,98821.86
2018-11-07T21:26:26.229Z,98821.56
2018-11-07T21:28:53.459Z,98820.77
2018-11-07T21:31:21.040Z,98828.72
2018-11-07T21:33:48.343Z,98830.05
2018-11-07T21:36:16.361Z,98831.59
2018-11-07T21:38:43.728Z,98827.61
2018-11-07T21:41:11.048Z,98834.73
2018-11-07T21:43:38.777Z,98836.84
2018-11-07T21:46:07.133Z,98839.52
2018-11-07T21:48:34.436Z,98840.61
2018-11-07T21:51:01.901Z,98848.28
2018-11-07T21:53:29.076Z,98849.09
2018-11-07T21:55:56.329Z,98849.09
2018-11-07T21:58:23.668Z,98853.82
2018-11-07T22:00:51.060Z,98854.39
2018-11-07T22:03:18.259Z,98856.77
2018-11-07T22:05:45.695Z,98852.55
2018-11-07T22:08:12.965Z,98854.31
2018-11-07T22:10:40.229Z,98861.22
2018-11-07T22:13:07.629Z,98863.08
2018-11-07T22:15:35.271Z,98866.05
2018-11-07T22:18:02.621Z,98866.36
2018-11-07T22:20:30.356Z,98877.30
2018-11-07T22:22:58.045Z,98875.41
2018-11-07T22:25:25.526Z,98865.83
2018-11-07T22:27:53.026Z,98869.80
2018-11-07T22:30:21.475Z,98872.69
2018-11-07T22:32:48.927Z,98873.23
2018-11-07T22:35:17.267Z,98877.41
2018-11-07T22:37:45.556Z,98877.97
2018-11-07T22:40:14.338Z,98880.39
2018-11-07T22:42:41.895Z,98874.81
2018-11-07T22:45:10.029Z,98876.42
2018-11-07T22:47:37.505Z,98873.00
2018-11-07T22:50:05.569Z,98883.56
2018-11-07T22:52:32.936Z,98881.96
2018-11-07T22:55:00.328Z,98885.95
2018-11-07T22:57:27.580Z,98878.00
2018-11-07T22:59:54.822Z,98879.33
2018-11-07T23:02:22.165Z,98880.41
2018-11-07T23:04:49.462Z,98885.19
2018-11-07T23:07:16.707Z,98889.15
2018-11-07T23:09:43.983Z,98887.01
2018-11-07T23:12:11.341Z,98893.05
2018-11-07T23:14:38.691Z,98896.48
2018-11-07T23:17:05.982Z,98892.50
2018-11-07T23:19:33.424Z,98892.23
2018-11-07T23:22:00.571Z,98896.50
2018-11-07T23:24:28.303Z,98907.12
2018-11-07T23:26:55.526Z,98909.24
2018-11-07T23:29:22.767Z,98910.30
2018-11-07T23:31:50.142Z,98912.14
2018-11-07T23:34:17.696Z,98919.58
2018-11-07T23:36:44.934Z,98918.22
2018-11-07T23:39:12.276Z,98924.56
2018-11-07T23:41:39.450Z,98927.00
2018-11-07T23:44:06.678Z,98929.36
2018-11-07T23:46:33.969Z,98929.87
2018-11-07T23:49:01.187Z,98939.22
2018-11-07T23:51:28.560Z,98940.87
2018-11-07T23:53:55.798Z,98936.61
2018-11-07T23:56:23.152Z,98939.99
2018-11-07T23:58:50.389Z,98938.20
